createdAt,value
2019-02-05T00:00:40.705Z,12.17
2019-02-05T00:03:15.910Z,12.97
2019-02-05T00:05:49.016Z,12.77
2019-02-05T00:08:21.850Z,12.20
2019-02-05T00:10:55.049Z,11.77
2019-02-05T00:13:28.075Z,13.13
2019-02-05T00:16:01.036Z,14.77
2019-02-05T00:18:33.854Z,13.50
2019-02-05T00:21:06.730Z,12.10
2019-02-05T00:23:39.784Z,10.47
2019-02-05T00:26:12.721Z,11.13
2019-02-05T00:28:45.535Z,13.30
2019-02-05T00:31:18.287Z,13.47
2019-02-05T00:33:51.238Z,12.30
2019-02-05T00:36:24.204Z,11.80
2019-02-05T00:38:56.972Z,14.17
2019-02-05T00:41:29.742Z,11.50
2019-02-05T00:44:02.616Z,11.53
2019-02-05T00:46:35.946Z,15.97
2019-02-05T00:49:08.770Z,13.23
2019-02-05T00:51:41.677Z,11.23
2019-02-05T00:54:14.476Z,14.27
2019-02-05T00:56:47.572Z,10.60
2019-02-05T00:59:20.458Z,14.53
2019-02-05T01:01:53.522Z,11.70
2019-02-05T01:04:26.852Z,13.67
2019-02-05T01:07:02.890Z,12.50
2019-02-05T01:09:38.669Z,12.80
2019-02-05T01:12:11.853Z,16.33
2019-02-05T01:14:44.908Z,13.83
2019-02-05T01:17:17.851Z,15.97
2019-02-05T01:19:51.038Z,12.67
2019-02-05T01:22:23.793Z,16.93
2019-02-05T01:24:56.715Z,17.63
2019-02-05T01:27:30.144Z,19.13
2019-02-05T01:30:05.225Z,17.93
2019-02-05T01:32:38.572Z,13.73
2019-02-05T01:35:11.342Z,19.50
2019-02-05T01:37:44.387Z,19.43
2019-02-05T01:40:18.737Z,16.33
2019-02-05T01:42:52.721Z,12.67
2019-02-05T01:45:25.763Z,14.30
2019-02-05T01:47:58.618Z,17.77
2019-02-05T01:50:31.413Z,14.23
2019-02-05T01:53:04.222Z,15.13
2019-02-05T01:55:37.357Z,16.20
2019-02-05T01:58:10.383Z,20.47
2019-02-05T02:00:43.379Z,17.90
2019-02-05T02:03:16.400Z,17.20
2019-02-05T02:05:49.471Z,20.13
2019-02-05T02:08:22.332Z,21.13
2019-02-05T02:10:55.194Z,19.40
2019-02-05T02:13:28.547Z,15.77
2019-02-05T02:16:01.406Z,18.10
2019-02-05T02:18:34.417Z,19.20
2019-02-05T02:21:07.442Z,14.87
2019-02-05T02:23:40.222Z,16.67
2019-02-05T02:26:13.138Z,16.03
2019-02-05T02:28:46.506Z,17.13
2019-02-05T02:31:19.642Z,19.80
2019-02-05T02:33:52.858Z,19.23
2019-02-05T02:36:25.626Z,16.17
2019-02-05T02:38:58.453Z,18.73
2019-02-05T02:41:32.501Z,24.33
2019-02-05T02:44:05.352Z,18.93
2019-02-05T02:46:38.302Z,16.00
2019-02-05T02:49:11.289Z,18.97
2019-02-05T02:51:44.453Z,17.97
2019-02-05T02:54:17.181Z,17.47
2019-02-05T02:56:50.243Z,18.23
2019-02-05T02:59:23.333Z,15.23
2019-02-05T03:01:56.269Z,21.30
2019-02-05T03:04:29.424Z,20.30
2019-02-05T03:07:02.502Z,19.77
2019-02-05T03:09:35.515Z,19.27
2019-02-05T03:12:08.457Z,22.27
2019-02-05T03:14:41.505Z,19.63
2019-02-05T03:17:14.348Z,17.97
2019-02-05T03:19:47.497Z,20.73
2019-02-05T03:22:20.399Z,17.87
2019-02-05T03:24:53.215Z,24.37
2019-02-05T03:27:26.126Z,20.03
2019-02-05T03:29:59.260Z,22.27
2019-02-05T03:32:32.156Z,21.07
2019-02-05T03:35:05.464Z,23.63
2019-02-05T03:37:38.260Z,18.00
2019-02-05T03:41:06.245Z,20.53
2019-02-05T03:43:39.929Z,22.37
2019-02-05T03:46:14.196Z,18.97
2019-02-05T03:48:48.399Z,23.87
2019-02-05T03:51:55.887Z,23.03
2019-02-05T03:54:39.629Z,22.70
2019-02-05T03:57:54.118Z,20.90
2019-02-05T04:01:04.786Z,21.07
2019-02-05T04:04:28.715Z,21.73
2019-02-05T04:07:36.487Z,18.43
2019-02-05T04:11:05.119Z,24.93
2019-02-05T04:14:03.074Z,26.03
2019-02-05T04:17:12.805Z,21.70
2019-02-05T04:20:09.343Z,26.57
2019-02-05T04:23:29.009Z,21.90
2019-02-05T04:26:39.454Z,21.60
2019-02-05T04:29:35.709Z,19.13
2019-02-05T04:32:44.277Z,24.43
2019-02-05T04:35:42.910Z,21.30
2019-02-05T04:38:46.665Z,21.17
2019-02-05T04:41:52.015Z,19.33
2019-02-05T04:45:11.109Z,24.17
2019-02-05T04:48:17.749Z,23.60
2019-02-05T04:51:56.699Z,22.73
2019-02-05T04:54:58.064Z,18.17
2019-02-05T04:57:57.991Z,23.47
2019-02-05T05:01:15.390Z,23.27
2019-02-05T05:04:22.207Z,21.33
2019-02-05T05:07:10.745Z,20.03
2019-02-05T05:09:49.672Z,19.77
2019-02-05T05:12:22.942Z,19.87
2019-02-05T05:14:56.212Z,25.13
2019-02-05T05:17:29.238Z,21.60
2019-02-05T05:20:02.292Z,22.43
2019-02-05T05:22:35.124Z,25.63
2019-02-05T05:25:09.591Z,21.13
2019-02-05T05:27:42.856Z,18.10
2019-02-05T05:30:17.753Z,26.23
2019-02-05T05:32:51.121Z,19.53
2019-02-05T05:35:24.259Z,26.83
2019-02-05T05:37:57.084Z,19.10
2019-02-05T05:40:30.077Z,19.87
2019-02-05T05:43:03.000Z,20.13
2019-02-05T05:45:36.060Z,21.93
2019-02-05T05:48:09.194Z,22.50
2019-02-05T05:50:42.211Z,20.23
2019-02-05T05:53:16.261Z,21.40
2019-02-05T05:55:49.175Z,21.80
2019-02-05T05:58:23.382Z,19.17
2019-02-05T06:00:56.655Z,20.00
2019-02-05T06:03:29.547Z,20.33
2019-02-05T06:06:02.730Z,19.57
2019-02-05T06:08:35.577Z,21.03
2019-02-05T06:11:08.584Z,26.83
2019-02-05T06:13:41.811Z,18.67
2019-02-05T06:16:14.907Z,23.63
2019-02-05T06:18:47.973Z,15.70
2019-02-05T06:21:20.972Z,19.47
2019-02-05T06:23:54.209Z,23.50
2019-02-05T06:26:27.367Z,18.70
2019-02-05T06:29:00.142Z,21.23
2019-02-05T06:31:33.186Z,22.20
2019-02-05T06:34:05.926Z,18.60
2019-02-05T06:36:38.931Z,18.83
2019-02-05T06:39:11.890Z,24.13
2019-02-05T06:41:44.844Z,21.40
2019-02-05T06:44:17.809Z,20.70
2019-02-05T06:46:51.015Z,22.40
2019-02-05T06:49:24.087Z,21.13
2019-02-05T06:51:57.033Z,20.77
2019-02-05T06:54:30.010Z,21.57
2019-02-05T06:57:02.942Z,22.13
2019-02-05T06:59:35.841Z,22.73
2019-02-05T07:02:09.294Z,21.33
2019-02-05T07:04:42.290Z,33.13
2019-02-05T07:07:15.450Z,23.17
2019-02-05T07:09:48.371Z,22.13
2019-02-05T07:12:21.452Z,21.27
2019-02-05T07:14:54.716Z,24.20
2019-02-05T07:17:27.817Z,21.70
2019-02-05T07:20:00.806Z,23.17
2019-02-05T07:22:33.751Z,23.63
2019-02-05T07:25:08.822Z,21.43
2019-02-05T07:27:41.610Z,22.63
2019-02-05T07:30:17.803Z,24.60
2019-02-05T07:32:50.671Z,21.67
2019-02-05T07:35:23.737Z,22.30
2019-02-05T07:37:56.770Z,27.40
2019-02-05T07:40:29.917Z,24.10
2019-02-05T07:43:02.893Z,27.77
2019-02-05T07:45:36.075Z,29.53
2019-02-05T07:48:09.086Z,30.63
2019-02-05T07:50:42.861Z,28.67
2019-02-05T07:53:15.723Z,31.73
2019-02-05T07:55:48.668Z,24.30
2019-02-05T07:58:21.643Z,21.97
2019-02-05T08:00:54.722Z,35.17
2019-02-05T08:03:27.807Z,39.33
2019-02-05T08:06:00.682Z,42.27
2019-02-05T08:08:33.738Z,32.80
2019-02-05T08:11:06.582Z,42.93
2019-02-05T08:13:39.616Z,37.63
2019-02-05T08:16:12.698Z,26.07
2019-02-05T08:18:45.941Z,20.77
2019-02-05T08:21:18.949Z,23.03
2019-02-05T08:23:51.839Z,25.40
2019-02-05T08:26:24.725Z,22.37
2019-02-05T08:28:57.523Z,21.87
2019-02-05T08:31:30.774Z,24.80
2019-02-05T08:34:03.629Z,23.67
2019-02-05T08:36:36.498Z,23.03
2019-02-05T08:39:09.421Z,20.77
2019-02-05T08:41:43.499Z,23.60
2019-02-05T08:44:16.779Z,24.03
2019-02-05T08:46:49.725Z,31.53
2019-02-05T08:49:22.638Z,28.27
2019-02-05T08:51:55.737Z,20.40
2019-02-05T08:54:28.594Z,27.53
2019-02-05T08:57:01.803Z,28.10
2019-02-05T08:59:34.769Z,28.57
2019-02-05T09:02:07.735Z,27.37
2019-02-05T09:04:40.623Z,26.53
2019-02-05T09:07:13.905Z,29.80
2019-02-05T09:09:47.327Z,24.77
2019-02-05T09:12:20.434Z,26.43
2019-02-05T09:14:53.522Z,29.70
2019-02-05T09:17:26.397Z,24.63
2019-02-05T09:19:59.593Z,30.93
2019-02-05T09:22:32.857Z,29.10
2019-02-05T09:25:06.629Z,28.60
2019-02-05T09:27:39.647Z,27.83
2019-02-05T09:30:21.016Z,27.47
2019-02-05T09:32:55.539Z,26.93
2019-02-05T09:35:28.427Z,36.00
2019-02-05T09:38:01.323Z,31.80
2019-02-05T09:40:34.259Z,30.57
2019-02-05T09:43:07.228Z,28.53
2019-02-05T09:45:40.698Z,28.97
2019-02-05T09:48:13.613Z,27.57
2019-02-05T09:50:46.464Z,28.53
2019-02-05T09:53:19.539Z,27.93
2019-02-05T09:55:52.538Z,27.20
2019-02-05T09:58:25.578Z,21.87
2019-02-05T10:00:59.763Z,26.10
2019-02-05T10:03:33.794Z,34.63
2019-02-05T10:06:06.653Z,28.20
2019-02-05T10:08:39.559Z,26.90
2019-02-05T10:11:12.693Z,32.63
2019-02-05T10:13:45.708Z,27.40
2019-02-05T10:16:18.770Z,27.83
2019-02-05T10:18:51.969Z,27.00
2019-02-05T10:21:24.812Z,34.13
2019-02-05T10:23:57.825Z,33.03
2019-02-05T10:26:30.700Z,24.13
2019-02-05T10:29:03.714Z,31.73
2019-02-05T10:31:36.704Z,30.27
2019-02-05T10:34:09.748Z,27.50
2019-02-05T10:36:42.754Z,26.80
2019-02-05T10:39:15.809Z,27.17
2019-02-05T10:41:48.814Z,26.40
2019-02-05T10:44:21.871Z,21.13
2019-02-05T10:46:54.763Z,22.90
2019-02-05T10:49:27.689Z,32.13
2019-02-05T10:52:00.615Z,26.70
2019-02-05T10:54:35.474Z,29.53
2019-02-05T10:57:08.456Z,26.33
2019-02-05T10:59:41.901Z,24.97
2019-02-05T11:02:14.788Z,27.60
2019-02-05T11:04:48.672Z,25.33
2019-02-05T11:07:21.514Z,30.23
2019-02-05T11:09:54.662Z,26.87
2019-02-05T11:12:27.797Z,28.77
2019-02-05T11:15:00.735Z,24.60
2019-02-05T11:17:33.674Z,26.83
2019-02-05T11:20:10.456Z,21.60
2019-02-05T11:22:43.811Z,21.87
2019-02-05T11:25:17.059Z,30.50
2019-02-05T11:27:49.862Z,23.13
2019-02-05T11:30:28.341Z,22.47
2019-02-05T11:33:01.275Z,24.67
2019-02-05T11:35:34.527Z,27.20
2019-02-05T11:38:08.188Z,22.97
2019-02-05T11:40:41.331Z,22.13
2019-02-05T11:43:14.349Z,20.03
2019-02-05T11:45:47.451Z,22.07
2019-02-05T11:48:20.655Z,23.23
2019-02-05T11:50:53.623Z,24.03
2019-02-05T11:53:26.457Z,26.23
2019-02-05T11:55:59.551Z,29.53
2019-02-05T11:58:32.485Z,23.67
2019-02-05T12:01:10.478Z,24.03
2019-02-05T12:03:43.571Z,25.40
2019-02-05T12:06:16.582Z,28.07
2019-02-05T12:08:49.657Z,29.93
2019-02-05T12:11:23.003Z,24.93
2019-02-05T12:13:55.863Z,23.97
2019-02-05T12:16:28.852Z,26.27
2019-02-05T12:19:02.812Z,26.43
2019-02-05T12:21:35.665Z,26.10
2019-02-05T12:24:08.416Z,27.03
2019-02-05T12:26:41.685Z,28.10
2019-02-05T12:29:14.840Z,24.17
2019-02-05T12:31:47.917Z,23.43
2019-02-05T12:34:21.068Z,21.27
2019-02-05T12:36:54.072Z,23.43
2019-02-05T12:39:26.976Z,23.83
2019-02-05T12:41:59.817Z,21.93
2019-02-05T12:44:32.806Z,25.00
2019-02-05T12:47:05.926Z,21.87
2019-02-05T12:49:39.172Z,27.60
2019-02-05T12:52:12.057Z,23.43
2019-02-05T12:54:45.095Z,21.77
2019-02-05T12:57:18.082Z,24.87
2019-02-05T12:59:50.946Z,23.73
2019-02-05T13:02:24.228Z,21.37
2019-02-05T13:04:57.148Z,23.83
2019-02-05T13:07:29.992Z,22.77
2019-02-05T13:10:03.341Z,26.83
2019-02-05T13:12:36.171Z,22.63
2019-02-05T13:15:09.714Z,34.53
2019-02-05T13:17:42.617Z,21.33
2019-02-05T13:20:21.211Z,22.73
2019-02-05T13:22:54.343Z,26.10
2019-02-05T13:25:28.781Z,24.83
2019-02-05T13:28:01.716Z,24.70
2019-02-05T13:30:34.902Z,24.17
2019-02-05T13:33:08.206Z,25.90
2019-02-05T13:35:41.185Z,37.57
2019-02-05T13:38:14.204Z,25.93
2019-02-05T13:40:47.587Z,24.87
2019-02-05T13:43:20.472Z,23.27
2019-02-05T13:45:53.288Z,25.73
2019-02-05T13:48:26.531Z,26.43
2019-02-05T13:50:59.585Z,24.27
2019-02-05T13:53:32.660Z,26.97
2019-02-05T13:56:06.076Z,27.47
2019-02-05T13:58:39.313Z,27.53
2019-02-05T14:01:19.709Z,25.90
2019-02-05T14:03:47.114Z,26.00
2019-02-05T14:06:20.034Z,25.70
2019-02-05T14:08:53.047Z,28.50
2019-02-05T14:11:26.054Z,29.10
2019-02-05T14:13:59.087Z,27.93
2019-02-05T14:16:31.964Z,24.87
2019-02-05T14:19:04.906Z,28.77
2019-02-05T14:21:38.112Z,25.37
2019-02-05T14:24:11.127Z,29.33
2019-02-05T14:26:44.183Z,25.23
2019-02-05T14:29:17.414Z,27.27
2019-02-05T14:31:50.383Z,25.23
2019-02-05T14:34:23.308Z,24.83
2019-02-05T14:36:56.182Z,26.53
2019-02-05T14:39:29.076Z,22.40
2019-02-05T14:42:02.161Z,24.27
2019-02-05T14:44:35.628Z,24.40
2019-02-05T14:47:08.518Z,23.60
2019-02-05T14:49:41.498Z,22.90
2019-02-05T14:52:14.468Z,23.27
2019-02-05T14:54:47.548Z,25.37
2019-02-05T14:57:20.568Z,20.17
2019-02-05T14:59:53.449Z,24.93
2019-02-05T15:02:26.452Z,22.93
2019-02-05T15:04:59.318Z,21.00
2019-02-05T15:07:32.597Z,22.40
2019-02-05T15:10:07.912Z,23.07
2019-02-05T15:12:40.942Z,26.50
2019-02-05T15:15:15.230Z,24.07
2019-02-05T15:17:48.164Z,25.87
2019-02-05T15:20:38.289Z,28.60
2019-02-05T15:23:11.195Z,24.17
2019-02-05T15:25:44.369Z,32.07
2019-02-05T15:28:17.589Z,23.47
2019-02-05T15:30:50.672Z,22.33
2019-02-05T15:33:37.673Z,22.83
2019-02-05T15:36:31.360Z,26.63
2019-02-05T15:39:11.704Z,21.47
2019-02-05T15:41:44.507Z,27.13
2019-02-05T15:44:17.833Z,27.83
2019-02-05T15:46:50.896Z,21.40
2019-02-05T15:49:26.885Z,23.83
2019-02-05T15:51:58.544Z,24.80
2019-02-05T15:54:31.464Z,26.83
2019-02-05T15:57:04.765Z,30.40
2019-02-05T15:59:37.560Z,27.43
2019-02-05T16:02:10.606Z,27.47
2019-02-05T16:04:43.429Z,33.77
2019-02-05T16:07:16.800Z,35.27
2019-02-05T16:09:49.605Z,34.00
2019-02-05T16:12:22.690Z,42.27
2019-02-05T16:14:55.810Z,38.40
2019-02-05T16:17:28.765Z,28.17
2019-02-05T16:20:01.671Z,31.97
2019-02-05T16:22:35.021Z,32.87
2019-02-05T16:25:10.119Z,28.10
2019-02-05T16:27:43.085Z,31.30
2019-02-05T16:30:17.613Z,29.63
2019-02-05T16:32:50.494Z,31.43
2019-02-05T16:35:23.538Z,27.00
2019-02-05T16:37:56.713Z,34.47
2019-02-05T16:40:29.789Z,32.10
2019-02-05T16:43:02.878Z,39.17
2019-02-05T16:45:35.763Z,31.67
2019-02-05T16:48:08.729Z,36.47
2019-02-05T16:50:43.148Z,28.30
2019-02-05T16:53:16.301Z,33.73
2019-02-05T16:55:49.379Z,36.20
2019-02-05T16:58:22.269Z,34.17
2019-02-05T17:00:55.074Z,32.40
2019-02-05T17:03:27.931Z,32.47
2019-02-05T17:06:00.960Z,31.67
2019-02-05T17:08:33.764Z,34.03
2019-02-05T17:11:06.663Z,49.20
2019-02-05T17:13:39.672Z,41.23
2019-02-05T17:16:13.024Z,35.00
2019-02-05T17:18:46.286Z,35.53
2019-02-05T17:21:19.250Z,36.20
2019-02-05T17:23:52.184Z,36.57
2019-02-05T17:26:25.261Z,33.43
2019-02-05T17:28:58.344Z,36.40
2019-02-05T17:31:31.072Z,39.03
2019-02-05T17:34:04.305Z,50.70
2019-02-05T17:36:37.115Z,33.47
2019-02-05T17:39:12.215Z,41.23
2019-02-05T17:41:45.084Z,38.37
2019-02-05T17:44:18.190Z,36.33
2019-02-05T17:46:51.229Z,36.30
2019-02-05T17:49:24.231Z,35.77
2019-02-05T17:51:58.520Z,39.43
2019-02-05T17:54:31.365Z,42.67
2019-02-05T17:57:04.205Z,39.03
2019-02-05T17:59:37.569Z,40.87
2019-02-05T18:02:10.657Z,38.47
2019-02-05T18:04:43.860Z,38.93
2019-02-05T18:07:16.659Z,56.23
2019-02-05T18:09:49.686Z,36.50
2019-02-05T18:12:22.830Z,38.73
2019-02-05T18:14:55.950Z,38.40
2019-02-05T18:17:29.016Z,37.83
2019-02-05T18:20:01.822Z,37.20
2019-02-05T18:22:35.626Z,33.77
2019-02-05T18:25:09.667Z,37.93
2019-02-05T18:27:42.526Z,35.47
2019-02-05T18:30:23.690Z,50.13
2019-02-05T18:33:04.363Z,31.40
2019-02-05T18:35:31.866Z,31.53
2019-02-05T18:38:06.092Z,36.03
2019-02-05T18:40:39.123Z,34.00
2019-02-05T18:43:12.343Z,36.33
2019-02-05T18:45:45.595Z,30.47
2019-02-05T18:48:18.575Z,34.93
2019-02-05T18:50:51.725Z,33.20
2019-02-05T18:53:24.762Z,30.00
2019-02-05T18:55:57.530Z,35.47
2019-02-05T18:58:30.451Z,37.57
2019-02-05T19:01:03.281Z,30.87
2019-02-05T19:03:36.285Z,35.93
2019-02-05T19:06:09.419Z,30.53
2019-02-05T19:08:42.306Z,37.50
2019-02-05T19:11:15.462Z,32.80
2019-02-05T19:13:48.423Z,32.43
2019-02-05T19:16:21.597Z,38.53
2019-02-05T19:18:54.591Z,33.17
2019-02-05T19:21:27.566Z,33.67
2019-02-05T19:24:35.381Z,32.00
2019-02-05T19:27:08.447Z,31.20
2019-02-05T19:29:41.541Z,28.97
2019-02-05T19:32:17.216Z,34.03
2019-02-05T19:34:50.142Z,26.67
2019-02-05T19:37:23.229Z,29.03
2019-02-05T19:39:56.276Z,40.70
2019-02-05T19:42:29.134Z,31.17
2019-02-05T19:45:15.574Z,29.97
2019-02-05T19:47:48.588Z,36.97
2019-02-05T19:50:21.498Z,30.23
2019-02-05T19:52:54.363Z,27.03
2019-02-05T19:55:27.398Z,29.20
2019-02-05T19:58:00.933Z,26.03
2019-02-05T20:00:34.071Z,27.83
2019-02-05T20:03:07.031Z,33.63
2019-02-05T20:05:40.404Z,29.53
2019-02-05T20:08:13.280Z,26.70
2019-02-05T20:10:46.384Z,33.00
2019-02-05T20:13:19.367Z,28.17
2019-02-05T20:15:52.314Z,30.13
2019-02-05T20:18:25.675Z,35.03
2019-02-05T20:20:58.602Z,29.43
2019-02-05T20:23:31.954Z,27.87
2019-02-05T20:26:05.082Z,28.20
2019-02-05T20:28:38.392Z,33.23
2019-02-05T20:31:11.195Z,31.57
2019-02-05T20:33:49.904Z,39.07
2019-02-05T20:36:19.005Z,29.27
2019-02-05T20:38:51.794Z,31.00
2019-02-05T20:41:25.060Z,29.50
2019-02-05T20:43:57.937Z,35.13
2019-02-05T20:46:30.899Z,29.40
2019-02-05T20:49:04.133Z,31.73
2019-02-05T20:51:37.024Z,32.30
2019-02-05T20:54:10.698Z,35.87
2019-02-05T20:56:43.660Z,37.90
2019-02-05T20:59:16.585Z,36.83
2019-02-05T21:01:49.663Z,34.70
2019-02-05T21:04:22.655Z,37.80
2019-02-05T21:06:55.938Z,44.67
2019-02-05T21:09:29.034Z,33.13
2019-02-05T21:12:01.953Z,33.17
2019-02-05T21:14:34.989Z,32.00
2019-02-05T21:17:07.902Z,30.50
2019-02-05T21:19:40.905Z,31.43
2019-02-05T21:22:13.820Z,101.53
2019-02-05T21:24:46.908Z,37.73
2019-02-05T21:27:19.995Z,31.93
2019-02-05T21:29:52.895Z,44.47
2019-02-05T21:32:25.905Z,31.73
2019-02-05T21:34:58.906Z,38.03
2019-02-05T21:37:31.895Z,35.93
2019-02-05T21:40:06.334Z,36.07
2019-02-05T21:42:39.604Z,35.17
2019-02-05T21:45:14.978Z,34.17
2019-02-05T21:47:47.930Z,32.23
2019-02-05T21:50:20.997Z,30.80
2019-02-05T21:52:54.955Z,33.03
2019-02-05T21:55:28.006Z,31.70
2019-02-05T21:58:01.158Z,30.03
2019-02-05T22:00:34.113Z,28.33
2019-02-05T22:03:07.368Z,26.37
2019-02-05T22:05:40.413Z,35.07
2019-02-05T22:08:13.281Z,26.33
2019-02-05T22:10:46.305Z,29.73
2019-02-05T22:13:19.131Z,26.30
2019-02-05T22:15:52.058Z,30.23
2019-02-05T22:18:25.030Z,25.00
2019-02-05T22:20:57.935Z,29.57
2019-02-05T22:23:30.951Z,26.30
2019-02-05T22:26:04.031Z,20.20
2019-02-05T22:28:36.848Z,21.37
2019-02-05T22:31:09.879Z,20.53
2019-02-05T22:33:42.879Z,19.37
2019-02-05T22:36:15.774Z,22.20
2019-02-05T22:38:48.933Z,18.90
2019-02-05T22:41:22.455Z,22.60
2019-02-05T22:43:55.454Z,17.27
2019-02-05T22:46:28.331Z,16.43
2019-02-05T22:49:02.637Z,19.73
2019-02-05T22:51:36.281Z,16.07
2019-02-05T22:54:09.105Z,16.47
2019-02-05T22:56:42.079Z,22.23
2019-02-05T22:59:15.111Z,18.50
2019-02-05T23:01:53.837Z,20.67
2019-02-05T23:05:17.590Z,19.70
2019-02-05T23:07:50.962Z,18.70
2019-02-05T23:10:48.655Z,17.93
2019-02-05T23:13:21.890Z,15.33
2019-02-05T23:15:55.291Z,15.90
2019-02-05T23:18:28.146Z,16.80
2019-02-05T23:21:01.370Z,20.70
2019-02-05T23:23:34.255Z,23.30
2019-02-05T23:26:07.131Z,21.13
2019-02-05T23:28:40.392Z,18.73
2019-02-05T23:31:13.214Z,18.07
2019-02-05T23:33:46.166Z,21.73
2019-02-05T23:36:19.186Z,19.93
2019-02-05T23:38:52.091Z,19.60
2019-02-05T23:41:25.116Z,22.63
2019-02-05T23:43:57.907Z,23.17
2019-02-05T23:46:31.040Z,20.50
2019-02-05T23:49:04.125Z,19.10
2019-02-05T23:51:37.566Z,19.63
2019-02-05T23:54:10.421Z,17.97
2019-02-05T23:56:43.636Z,17.90
2019-02-05T23:59:16.455Z,20.67
